Главная страница
METAR-TAF:

METAR-TAF

Аэропорты :

Харьков, Украина

широта: 49-58N, долгота: 036-08E, высота над уровнем моря: 154 м

Текущие метеонаблюдения

Эта сводка был подготовлена 35 минут назад, в 19:00 UTC
Ветер 6 Узел от южный
Температура 10°C
Влажность 40%
Давление 1023 hPa
Видимость 10 км и более
Нет облачности ниже 1500 м, и нет кучево-дождевой облачности

METAR: UKHH 261900Z 19003MPS CAVOK 10/M03 Q1023 R25/0///67 NOSIG

Время: 22:35 (19:35 UTC)

Прогноз

Эта сводка был подготовлена 2 часа и 25 минут назад, в 17:10 UTC
Прогноз действительный с 26-го 18 UTC до 27-го 03 UTC
Ветер 12 Узел от южный
Видимость 10 км и более
Отдельные облака на высоте 3000 фута
временами
С 26-го 18 UTC до 26-го 24 UTC
Ветер 12 Узел от южный-юго-западный с порывами до 25 Узел

TAF: UKHH 261710Z 2618/2703 18006MPS 9999 SCT030 TEMPO 2618/2624 20006G13MPS

Метеонаблюдения и прогнозы для более 4000 аэропортов (сводки METAR и TAF).

Имеющиеся станции представлены на карте желтыми и красными точками.

Чтобы увидеть название станции, наведите на нее мышь.

Затем щелкните, чтобы увидеть метеонаблюдения и метеопрогнозы.

Управление картой: чтобы увеличить масштаб, щелкните зеленые кнопки с черным крестиком; чтобы уменьшить масштаб, щелкните зеленую кнопку с тире; для просмотра соседних карт щелкайте зеленые стрелки.


METAR-TAF: